sensor_id;sensor_type;location;lat;lon;timestamp;P1;durP1;ratioP1;P2;durP2;ratioP2
21122;SDS011;10719;48.130;11.630;2024-01-10T00:01:55;21.43;;;9.17;;
21122;SDS011;10719;48.130;11.630;2024-01-10T00:04:20;22.57;;;8.73;;
21122;SDS011;10719;48.130;11.630;2024-01-10T00:06:46;22.50;;;9.23;;
21122;SDS011;10719;48.130;11.630;2024-01-10T00:09:12;18.00;;;7.30;;
21122;SDS011;10719;48.130;11.630;2024-01-10T00:11:37;24.87;;;10.17;;
21122;SDS011;10719;48.130;11.630;2024-01-10T00:14:03;21.07;;;9.07;;
21122;SDS011;10719;48.130;11.630;2024-01-10T00:16:29;26.60;;;10.07;;
21122;SDS011;10719;48.130;11.630;2024-01-10T00:18:55;22.53;;;9.93;;
21122;SDS011;10719;48.130;11.630;2024-01-10T00:21:20;30.58;;;11.20;;
21122;SDS011;10719;48.130;11.630;2024-01-10T00:23:46;21.83;;;8.27;;
21122;SDS011;10719;48.130;11.630;2024-01-10T00:26:11;22.07;;;9.03;;
21122;SDS011;10719;48.130;11.630;2024-01-10T00:28:37;24.70;;;8.73;;
21122;SDS011;10719;48.130;11.630;2024-01-10T00:31:03;25.93;;;9.07;;
21122;SDS011;10719;48.130;11.630;2024-01-10T00:33:28;23.97;;;10.70;;
21122;SDS011;10719;48.130;11.630;2024-01-10T00:35:54;24.20;;;8.07;;
21122;SDS011;10719;48.130;11.630;2024-01-10T00:38:20;29.00;;;11.97;;
21122;SDS011;10719;48.130;11.630;2024-01-10T00:40:46;20.80;;;7.83;;
21122;SDS011;10719;48.130;11.630;2024-01-10T00:43:11;24.37;;;10.07;;
21122;SDS011;10719;48.130;11.630;2024-01-10T00:45:37;29.93;;;10.23;;
21122;SDS011;10719;48.130;11.630;2024-01-10T00:48:02;23.50;;;8.00;;
21122;SDS011;10719;48.130;11.630;2024-01-10T00:50:28;25.00;;;8.47;;
21122;SDS011;10719;48.130;11.630;2024-01-10T00:52:54;23.47;;;8.90;;
21122;SDS011;10719;48.130;11.630;2024-01-10T00:55:20;26.53;;;9.13;;
21122;SDS011;10719;48.130;11.630;2024-01-10T00:57:45;24.93;;;9.33;;
21122;SDS011;10719;48.130;11.630;2024-01-10T01:00:11;21.70;;;7.13;;
21122;SDS011;10719;48.130;11.630;2024-01-10T01:02:37;25.87;;;9.27;;
21122;SDS011;10719;48.130;11.630;2024-01-10T01:05:06;27.93;;;10.20;;
21122;SDS011;10719;48.130;11.630;2024-01-10T01:07:33;21.13;;;7.23;;
21122;SDS011;10719;48.130;11.630;2024-01-10T01:09:58;23.83;;;8.60;;
21122;SDS011;10719;48.130;11.630;2024-01-10T01:12:24;26.47;;;8.27;;
21122;SDS011;10719;48.130;11.630;2024-01-10T01:14:50;23.33;;;8.50;;
21122;SDS011;10719;48.130;11.630;2024-01-10T01:17:16;25.57;;;9.47;;
21122;SDS011;10719;48.130;11.630;2024-01-10T01:19:41;26.83;;;9.20;;
21122;SDS011;10719;48.130;11.630;2024-01-10T01:22:07;25.53;;;8.87;;
21122;SDS011;10719;48.130;11.630;2024-01-10T01:24:32;26.93;;;9.63;;
21122;SDS011;10719;48.130;11.630;2024-01-10T01:26:58;23.53;;;8.57;;
21122;SDS011;10719;48.130;11.630;2024-01-10T01:29:24;27.87;;;9.70;;
21122;SDS011;10719;48.130;11.630;2024-01-10T01:31:50;23.23;;;9.40;;
21122;SDS011;10719;48.130;11.630;2024-01-10T01:34:17;21.70;;;8.30;;
21122;SDS011;10719;48.130;11.630;2024-01-10T01:36:42;24.20;;;9.00;;
21122;SDS011;10719;48.130;11.630;2024-01-10T01:39:08;28.20;;;8.90;;
21122;SDS011;10719;48.130;11.630;2024-01-10T01:41:34;24.33;;;9.87;;
21122;SDS011;10719;48.130;11.630;2024-01-10T01:43:59;22.33;;;8.63;;
21122;SDS011;10719;48.130;11.630;2024-01-10T01:46:25;20.07;;;7.93;;
21122;SDS011;10719;48.130;11.630;2024-01-10T01:48:51;23.63;;;8.23;;
21122;SDS011;10719;48.130;11.630;2024-01-10T01:51:17;21.90;;;8.57;;
21122;SDS011;10719;48.130;11.630;2024-01-10T01:53:46;23.23;;;9.17;;
21122;SDS011;10719;48.130;11.630;2024-01-10T01:56:13;23.80;;;8.10;;
21122;SDS011;10719;48.130;11.630;2024-01-10T01:58:40;25.23;;;7.97;;
21122;SDS011;10719;48.130;11.630;2024-01-10T02:01:08;28.87;;;9.90;;
21122;SDS011;10719;48.130;11.630;2024-01-10T02:03:36;28.77;;;9.03;;
21122;SDS011;10719;48.130;11.630;2024-01-10T02:06:02;27.37;;;8.83;;
21122;SDS011;10719;48.130;11.630;2024-01-10T02:08:29;27.27;;;8.10;;
21122;SDS011;10719;48.130;11.630;2024-01-10T02:10:56;24.13;;;8.00;;
21122;SDS011;10719;48.130;11.630;2024-01-10T02:13:22;25.83;;;8.27;;
21122;SDS011;10719;48.130;11.630;2024-01-10T02:15:48;25.13;;;8.90;;
21122;SDS011;10719;48.130;11.630;2024-01-10T02:18:14;23.20;;;8.80;;
21122;SDS011;10719;48.130;11.630;2024-01-10T02:20:42;20.43;;;7.37;;
21122;SDS011;10719;48.130;11.630;2024-01-10T02:23:08;26.97;;;8.73;;
21122;SDS011;10719;48.130;11.630;2024-01-10T02:25:34;25.53;;;8.13;;
21122;SDS011;10719;48.130;11.630;2024-01-10T02:28:00;30.33;;;9.60;;
21122;SDS011;10719;48.130;11.630;2024-01-10T02:30:25;22.30;;;10.10;;
21122;SDS011;10719;48.130;11.630;2024-01-10T02:32:51;27.43;;;10.03;;
21122;SDS011;10719;48.130;11.630;2024-01-10T02:35:16;29.60;;;9.63;;
21122;SDS011;10719;48.130;11.630;2024-01-10T02:37:42;24.33;;;9.17;;
21122;SDS011;10719;48.130;11.630;2024-01-10T02:40:08;26.90;;;10.03;;
21122;SDS011;10719;48.130;11.630;2024-01-10T02:42:34;28.67;;;9.93;;
21122;SDS011;10719;48.130;11.630;2024-01-10T02:45:00;18.37;;;7.13;;
21122;SDS011;10719;48.130;11.630;2024-01-10T02:47:26;20.37;;;7.80;;
21122;SDS011;10719;48.130;11.630;2024-01-10T02:49:51;27.63;;;9.17;;
21122;SDS011;10719;48.130;11.630;2024-01-10T02:52:17;21.47;;;8.37;;
21122;SDS011;10719;48.130;11.630;2024-01-10T02:54:44;26.27;;;9.30;;
21122;SDS011;10719;48.130;11.630;2024-01-10T02:57:10;26.23;;;10.43;;
21122;SDS011;10719;48.130;11.630;2024-01-10T02:59:36;23.03;;;8.07;;
21122;SDS011;10719;48.130;11.630;2024-01-10T03:02:01;23.97;;;9.33;;
21122;SDS011;10719;48.130;11.630;2024-01-10T03:04:27;21.23;;;8.90;;
21122;SDS011;10719;48.130;11.630;2024-01-10T03:06:53;23.80;;;9.50;;
21122;SDS011;10719;48.130;11.630;2024-01-10T03:09:18;31.40;;;9.33;;
21122;SDS011;10719;48.130;11.630;2024-01-10T03:11:44;27.63;;;10.60;;
21122;SDS011;10719;48.130;11.630;2024-01-10T03:14:10;26.83;;;9.93;;
21122;SDS011;10719;48.130;11.630;2024-01-10T03:16:36;27.50;;;9.67;;
21122;SDS011;10719;48.130;11.630;2024-01-10T03:19:03;23.23;;;9.17;;
21122;SDS011;10719;48.130;11.630;2024-01-10T03:21:28;24.30;;;8.87;;
21122;SDS011;10719;48.130;11.630;2024-01-10T03:23:58;21.00;;;8.07;;
21122;SDS011;10719;48.130;11.630;2024-01-10T03:26:25;22.03;;;8.63;;
21122;SDS011;10719;48.130;11.630;2024-01-10T03:28:51;23.77;;;7.87;;
21122;SDS011;10719;48.130;11.630;2024-01-10T03:31:17;20.70;;;6.63;;
21122;SDS011;10719;48.130;11.630;2024-01-10T03:33:43;26.73;;;9.63;;
21122;SDS011;10719;48.130;11.630;2024-01-10T03:36:10;20.03;;;8.40;;
21122;SDS011;10719;48.130;11.630;2024-01-10T03:38:37;27.17;;;9.33;;
21122;SDS011;10719;48.130;11.630;2024-01-10T03:41:02;26.53;;;9.60;;
21122;SDS011;10719;48.130;11.630;2024-01-10T03:43:28;29.00;;;9.57;;
21122;SDS011;10719;48.130;11.630;2024-01-10T03:45:54;24.17;;;9.40;;
21122;SDS011;10719;48.130;11.630;2024-01-10T03:48:20;41.45;;;17.02;;
21122;SDS011;10719;48.130;11.630;2024-01-10T03:50:45;28.53;;;11.60;;
21122;SDS011;10719;48.130;11.630;2024-01-10T03:53:11;25.93;;;10.10;;
21122;SDS011;10719;48.130;11.630;2024-01-10T03:55:36;25.20;;;9.17;;
21122;SDS011;10719;48.130;11.630;2024-01-10T03:58:03;23.80;;;9.63;;
21122;SDS011;10719;48.130;11.630;2024-01-10T04:00:29;25.43;;;9.53;;
21122;SDS011;10719;48.130;11.630;2024-01-10T04:02:55;21.43;;;7.83;;
21122;SDS011;10719;48.130;11.630;2024-01-10T04:05:21;24.20;;;7.03;;
21122;SDS011;10719;48.130;11.630;2024-01-10T04:07:47;25.20;;;10.47;;
21122;SDS011;10719;48.130;11.630;2024-01-10T04:10:13;22.93;;;8.97;;
21122;SDS011;10719;48.130;11.630;2024-01-10T04:12:39;28.97;;;10.17;;
21122;SDS011;10719;48.130;11.630;2024-01-10T04:15:05;30.80;;;10.90;;
21122;SDS011;10719;48.130;11.630;2024-01-10T04:17:31;29.50;;;9.57;;
21122;SDS011;10719;48.130;11.630;2024-01-10T04:19:57;23.33;;;9.50;;
21122;SDS011;10719;48.130;11.630;2024-01-10T04:22:26;21.70;;;10.03;;
21122;SDS011;10719;48.130;11.630;2024-01-10T04:24:52;22.67;;;7.57;;
21122;SDS011;10719;48.130;11.630;2024-01-10T04:27:17;26.67;;;9.50;;
21122;SDS011;10719;48.130;11.630;2024-01-10T04:29:43;26.43;;;9.43;;
21122;SDS011;10719;48.130;11.630;2024-01-10T04:32:09;32.40;;;9.73;;
21122;SDS011;10719;48.130;11.630;2024-01-10T04:34:35;25.70;;;9.33;;
21122;SDS011;10719;48.130;11.630;2024-01-10T04:37:00;27.50;;;9.63;;
21122;SDS011;10719;48.130;11.630;2024-01-10T04:39:26;30.27;;;11.60;;
21122;SDS011;10719;48.130;11.630;2024-01-10T04:41:52;24.27;;;9.47;;
21122;SDS011;10719;48.130;11.630;2024-01-10T04:44:18;25.37;;;9.73;;
21122;SDS011;10719;48.130;11.630;2024-01-10T04:46:44;26.47;;;9.77;;
21122;SDS011;10719;48.130;11.630;2024-01-10T04:49:09;28.03;;;9.37;;
21122;SDS011;10719;48.130;11.630;2024-01-10T04:51:35;26.47;;;8.27;;
21122;SDS011;10719;48.130;11.630;2024-01-10T04:54:01;27.03;;;8.67;;
21122;SDS011;10719;48.130;11.630;2024-01-10T04:56:26;22.50;;;8.73;;
21122;SDS011;10719;48.130;11.630;2024-01-10T04:58:52;24.03;;;9.27;;
21122;SDS011;10719;48.130;11.630;2024-01-10T05:01:18;20.50;;;8.77;;
21122;SDS011;10719;48.130;11.630;2024-01-10T05:03:44;25.50;;;8.60;;
21122;SDS011;10719;48.130;11.630;2024-01-10T05:06:09;21.80;;;8.10;;
21122;SDS011;10719;48.130;11.630;2024-01-10T05:08:35;24.63;;;8.60;;
21122;SDS011;10719;48.130;11.630;2024-01-10T05:11:01;24.97;;;8.70;;
21122;SDS011;10719;48.130;11.630;2024-01-10T05:13:27;19.90;;;7.13;;
21122;SDS011;10719;48.130;11.630;2024-01-10T05:15:53;23.80;;;8.57;;
21122;SDS011;10719;48.130;11.630;2024-01-10T05:18:20;23.07;;;8.20;;
21122;SDS011;10719;48.130;11.630;2024-01-10T05:20:46;24.80;;;8.07;;
21122;SDS011;10719;48.130;11.630;2024-01-10T05:23:12;22.30;;;7.50;;
21122;SDS011;10719;48.130;11.630;2024-01-10T05:25:38;23.23;;;9.00;;
21122;SDS011;10719;48.130;11.630;2024-01-10T05:28:04;24.33;;;9.27;;
21122;SDS011;10719;48.130;11.630;2024-01-10T05:30:30;26.07;;;8.70;;
21122;SDS011;10719;48.130;11.630;2024-01-10T05:32:56;22.23;;;6.77;;
21122;SDS011;10719;48.130;11.630;2024-01-10T05:35:23;26.17;;;9.27;;
21122;SDS011;10719;48.130;11.630;2024-01-10T05:37:51;27.40;;;8.87;;
21122;SDS011;10719;48.130;11.630;2024-01-10T05:40:17;26.40;;;8.73;;
21122;SDS011;10719;48.130;11.630;2024-01-10T05:42:43;25.17;;;9.33;;
21122;SDS011;10719;48.130;11.630;2024-01-10T05:45:09;23.77;;;8.40;;
21122;SDS011;10719;48.130;11.630;2024-01-10T05:47:35;22.87;;;8.13;;
21122;SDS011;10719;48.130;11.630;2024-01-10T05:50:01;37.93;;;10.87;;
21122;SDS011;10719;48.130;11.630;2024-01-10T05:52:27;33.27;;;11.30;;
21122;SDS011;10719;48.130;11.630;2024-01-10T05:54:52;26.77;;;8.57;;
21122;SDS011;10719;48.130;11.630;2024-01-10T05:57:18;29.73;;;9.90;;
21122;SDS011;10719;48.130;11.630;2024-01-10T05:59:44;29.70;;;9.03;;
21122;SDS011;10719;48.130;11.630;2024-01-10T06:02:10;25.17;;;8.97;;
21122;SDS011;10719;48.130;11.630;2024-01-10T06:04:35;29.30;;;10.10;;
21122;SDS011;10719;48.130;11.630;2024-01-10T06:07:01;28.47;;;10.07;;
21122;SDS011;10719;48.130;11.630;2024-01-10T06:09:27;40.77;;;11.47;;
21122;SDS011;10719;48.130;11.630;2024-01-10T06:11:52;28.80;;;11.33;;
21122;SDS011;10719;48.130;11.630;2024-01-10T06:14:18;27.20;;;9.77;;
21122;SDS011;10719;48.130;11.630;2024-01-10T06:16:44;26.50;;;9.20;;
21122;SDS011;10719;48.130;11.630;2024-01-10T06:19:10;30.93;;;9.33;;
21122;SDS011;10719;48.130;11.630;2024-01-10T06:21:36;31.17;;;11.03;;
21122;SDS011;10719;48.130;11.630;2024-01-10T06:24:02;25.33;;;9.33;;
21122;SDS011;10719;48.130;11.630;2024-01-10T06:26:28;27.43;;;9.33;;
21122;SDS011;10719;48.130;11.630;2024-01-10T06:28:54;30.23;;;9.47;;
21122;SDS011;10719;48.130;11.630;2024-01-10T06:31:19;27.10;;;8.90;;
21122;SDS011;10719;48.130;11.630;2024-01-10T06:33:45;24.70;;;8.77;;
21122;SDS011;10719;48.130;11.630;2024-01-10T06:36:11;27.97;;;9.43;;
21122;SDS011;10719;48.130;11.630;2024-01-10T06:38:40;21.77;;;9.10;;
21122;SDS011;10719;48.130;11.630;2024-01-10T06:41:08;27.47;;;8.50;;
21122;SDS011;10719;48.130;11.630;2024-01-10T06:43:35;26.40;;;8.17;;
21122;SDS011;10719;48.130;11.630;2024-01-10T06:46:01;25.33;;;8.87;;
21122;SDS011;10719;48.130;11.630;2024-01-10T06:48:28;26.60;;;8.50;;
21122;SDS011;10719;48.130;11.630;2024-01-10T06:50:54;24.40;;;9.13;;
21122;SDS011;10719;48.130;11.630;2024-01-10T06:53:20;24.70;;;8.77;;
21122;SDS011;10719;48.130;11.630;2024-01-10T06:55:46;24.73;;;9.43;;
21122;SDS011;10719;48.130;11.630;2024-01-10T06:58:12;26.83;;;10.70;;
21122;SDS011;10719;48.130;11.630;2024-01-10T07:00:37;28.00;;;9.27;;
21122;SDS011;10719;48.130;11.630;2024-01-10T07:03:03;26.10;;;9.43;;
21122;SDS011;10719;48.130;11.630;2024-01-10T07:05:29;29.17;;;9.83;;
21122;SDS011;10719;48.130;11.630;2024-01-10T07:07:57;23.87;;;9.00;;
21122;SDS011;10719;48.130;11.630;2024-01-10T07:10:23;28.00;;;8.87;;
21122;SDS011;10719;48.130;11.630;2024-01-10T07:12:54;24.70;;;8.33;;
21122;SDS011;10719;48.130;11.630;2024-01-10T07:15:20;22.17;;;7.93;;
21122;SDS011;10719;48.130;11.630;2024-01-10T07:17:46;28.83;;;9.23;;
21122;SDS011;10719;48.130;11.630;2024-01-10T07:20:12;30.70;;;8.53;;
21122;SDS011;10719;48.130;11.630;2024-01-10T07:22:38;26.47;;;9.33;;
21122;SDS011;10719;48.130;11.630;2024-01-10T07:25:09;27.03;;;9.80;;
21122;SDS011;10719;48.130;11.630;2024-01-10T07:27:35;28.47;;;11.10;;
21122;SDS011;10719;48.130;11.630;2024-01-10T07:30:04;27.43;;;9.07;;
21122;SDS011;10719;48.130;11.630;2024-01-10T07:32:38;24.43;;;8.83;;
21122;SDS011;10719;48.130;11.630;2024-01-10T07:35:05;22.60;;;8.63;;
21122;SDS011;10719;48.130;11.630;2024-01-10T07:37:34;27.17;;;9.67;;
21122;SDS011;10719;48.130;11.630;2024-01-10T07:40:03;29.60;;;9.37;;
21122;SDS011;10719;48.130;11.630;2024-01-10T07:42:36;30.20;;;9.70;;
21122;SDS011;10719;48.130;11.630;2024-01-10T07:45:02;28.03;;;10.63;;
21122;SDS011;10719;48.130;11.630;2024-01-10T07:47:32;29.77;;;10.47;;
21122;SDS011;10719;48.130;11.630;2024-01-10T07:50:11;27.97;;;9.40;;
21122;SDS011;10719;48.130;11.630;2024-01-10T07:52:39;31.70;;;10.63;;
21122;SDS011;10719;48.130;11.630;2024-01-10T07:55:05;29.93;;;11.50;;
21122;SDS011;10719;48.130;11.630;2024-01-10T07:57:31;29.43;;;10.93;;
21122;SDS011;10719;48.130;11.630;2024-01-10T07:59:58;31.43;;;10.37;;
21122;SDS011;10719;48.130;11.630;2024-01-10T08:02:24;29.23;;;10.53;;
21122;SDS011;10719;48.130;11.630;2024-01-10T08:04:50;26.67;;;9.00;;
21122;SDS011;10719;48.130;11.630;2024-01-10T08:07:16;28.30;;;9.03;;
21122;SDS011;10719;48.130;11.630;2024-01-10T08:09:42;26.97;;;9.27;;
21122;SDS011;10719;48.130;11.630;2024-01-10T08:12:07;28.07;;;10.77;;
21122;SDS011;10719;48.130;11.630;2024-01-10T08:14:33;24.80;;;9.67;;
21122;SDS011;10719;48.130;11.630;2024-01-10T08:16:59;25.60;;;10.60;;
21122;SDS011;10719;48.130;11.630;2024-01-10T08:19:25;24.53;;;9.37;;
21122;SDS011;10719;48.130;11.630;2024-01-10T08:21:54;36.47;;;11.20;;
21122;SDS011;10719;48.130;11.630;2024-01-10T08:24:20;26.63;;;8.87;;
21122;SDS011;10719;48.130;11.630;2024-01-10T08:26:46;27.63;;;10.07;;
21122;SDS011;10719;48.130;11.630;2024-01-10T08:29:17;23.37;;;9.10;;
21122;SDS011;10719;48.130;11.630;2024-01-10T08:31:43;31.07;;;11.60;;
21122;SDS011;10719;48.130;11.630;2024-01-10T08:34:09;25.13;;;11.23;;
21122;SDS011;10719;48.130;11.630;2024-01-10T08:36:35;26.47;;;10.50;;
21122;SDS011;10719;48.130;11.630;2024-01-10T08:39:00;25.30;;;10.20;;
21122;SDS011;10719;48.130;11.630;2024-01-10T08:41:28;32.50;;;10.97;;
21122;SDS011;10719;48.130;11.630;2024-01-10T08:43:53;33.93;;;12.17;;
21122;SDS011;10719;48.130;11.630;2024-01-10T08:46:19;27.67;;;11.43;;
21122;SDS011;10719;48.130;11.630;2024-01-10T08:48:45;29.23;;;11.03;;
21122;SDS011;10719;48.130;11.630;2024-01-10T08:51:12;26.40;;;10.07;;
21122;SDS011;10719;48.130;11.630;2024-01-10T08:53:41;30.73;;;11.47;;
21122;SDS011;10719;48.130;11.630;2024-01-10T08:56:07;30.83;;;11.63;;
21122;SDS011;10719;48.130;11.630;2024-01-10T08:58:33;26.17;;;10.53;;
21122;SDS011;10719;48.130;11.630;2024-01-10T09:00:58;31.87;;;10.97;;
21122;SDS011;10719;48.130;11.630;2024-01-10T09:03:24;33.07;;;11.30;;
21122;SDS011;10719;48.130;11.630;2024-01-10T09:05:49;27.80;;;11.03;;
21122;SDS011;10719;48.130;11.630;2024-01-10T09:08:15;30.90;;;11.43;;
21122;SDS011;10719;48.130;11.630;2024-01-10T09:10:41;27.33;;;10.40;;
21122;SDS011;10719;48.130;11.630;2024-01-10T09:13:06;30.53;;;11.33;;
21122;SDS011;10719;48.130;11.630;2024-01-10T09:15:32;33.20;;;11.33;;
21122;SDS011;10719;48.130;11.630;2024-01-10T09:17:57;31.37;;;10.47;;
21122;SDS011;10719;48.130;11.630;2024-01-10T09:20:23;31.00;;;10.27;;
21122;SDS011;10719;48.130;11.630;2024-01-10T09:22:49;33.60;;;11.90;;
21122;SDS011;10719;48.130;11.630;2024-01-10T09:25:14;34.50;;;12.17;;
21122;SDS011;10719;48.130;11.630;2024-01-10T09:27:40;32.60;;;10.87;;
21122;SDS011;10719;48.130;11.630;2024-01-10T09:30:08;30.90;;;11.30;;
21122;SDS011;10719;48.130;11.630;2024-01-10T09:32:34;32.77;;;11.20;;
21122;SDS011;10719;48.130;11.630;2024-01-10T09:35:00;28.50;;;12.40;;
21122;SDS011;10719;48.130;11.630;2024-01-10T09:37:26;35.60;;;12.33;;
21122;SDS011;10719;48.130;11.630;2024-01-10T09:39:52;28.67;;;10.80;;
21122;SDS011;10719;48.130;11.630;2024-01-10T09:42:18;37.70;;;12.43;;
21122;SDS011;10719;48.130;11.630;2024-01-10T09:44:45;33.97;;;12.10;;
21122;SDS011;10719;48.130;11.630;2024-01-10T09:47:12;30.80;;;11.80;;
21122;SDS011;10719;48.130;11.630;2024-01-10T09:49:40;27.97;;;11.53;;
21122;SDS011;10719;48.130;11.630;2024-01-10T09:52:06;29.43;;;10.93;;
21122;SDS011;10719;48.130;11.630;2024-01-10T09:54:39;25.37;;;10.13;;
21122;SDS011;10719;48.130;11.630;2024-01-10T09:57:06;29.83;;;11.60;;
21122;SDS011;10719;48.130;11.630;2024-01-10T09:59:31;28.77;;;11.37;;
21122;SDS011;10719;48.130;11.630;2024-01-10T10:01:57;25.93;;;10.90;;
21122;SDS011;10719;48.130;11.630;2024-01-10T10:04:27;30.87;;;11.53;;
21122;SDS011;10719;48.130;11.630;2024-01-10T10:07:00;28.67;;;10.73;;
21122;SDS011;10719;48.130;11.630;2024-01-10T10:09:26;30.40;;;11.83;;
21122;SDS011;10719;48.130;11.630;2024-01-10T10:11:54;32.33;;;11.20;;
21122;SDS011;10719;48.130;11.630;2024-01-10T10:14:20;28.73;;;10.57;;
21122;SDS011;10719;48.130;11.630;2024-01-10T10:16:45;31.93;;;11.50;;
21122;SDS011;10719;48.130;11.630;2024-01-10T10:19:11;29.87;;;11.07;;
21122;SDS011;10719;48.130;11.630;2024-01-10T10:21:38;26.80;;;10.13;;
21122;SDS011;10719;48.130;11.630;2024-01-10T10:24:04;28.90;;;11.20;;
21122;SDS011;10719;48.130;11.630;2024-01-10T10:26:33;35.23;;;12.97;;
21122;SDS011;10719;48.130;11.630;2024-01-10T10:29:00;33.47;;;13.00;;
21122;SDS011;10719;48.130;11.630;2024-01-10T10:31:26;26.43;;;10.37;;
21122;SDS011;10719;48.130;11.630;2024-01-10T10:33:52;29.93;;;11.07;;
21122;SDS011;10719;48.130;11.630;2024-01-10T10:36:21;29.63;;;11.00;;
21122;SDS011;10719;48.130;11.630;2024-01-10T10:38:47;33.40;;;11.43;;
21122;SDS011;10719;48.130;11.630;2024-01-10T10:41:15;30.03;;;10.80;;
21122;SDS011;10719;48.130;11.630;2024-01-10T10:43:43;34.20;;;11.20;;
21122;SDS011;10719;48.130;11.630;2024-01-10T10:46:09;25.73;;;10.17;;
21122;SDS011;10719;48.130;11.630;2024-01-10T10:48:42;27.50;;;10.67;;
21122;SDS011;10719;48.130;11.630;2024-01-10T10:51:13;28.20;;;11.37;;
21122;SDS011;10719;48.130;11.630;2024-01-10T10:53:44;31.30;;;12.70;;
21122;SDS011;10719;48.130;11.630;2024-01-10T10:56:12;30.60;;;12.10;;
21122;SDS011;10719;48.130;11.630;2024-01-10T10:58:44;31.30;;;12.10;;
21122;SDS011;10719;48.130;11.630;2024-01-10T11:01:11;32.83;;;12.07;;
21122;SDS011;10719;48.130;11.630;2024-01-10T11:03:39;30.13;;;11.93;;
21122;SDS011;10719;48.130;11.630;2024-01-10T11:06:07;36.67;;;12.00;;
21122;SDS011;10719;48.130;11.630;2024-01-10T11:08:40;35.13;;;12.37;;
21122;SDS011;10719;48.130;11.630;2024-01-10T11:14:19;38.40;;;12.83;;
21122;SDS011;10719;48.130;11.630;2024-01-10T11:22:16;27.87;;;11.73;;
21122;SDS011;10719;48.130;11.630;2024-01-10T11:25:02;30.90;;;11.23;;
21122;SDS011;10719;48.130;11.630;2024-01-10T11:27:29;29.70;;;12.73;;
21122;SDS011;10719;48.130;11.630;2024-01-10T11:29:55;27.80;;;10.67;;
21122;SDS011;10719;48.130;11.630;2024-01-10T11:32:23;27.30;;;10.73;;
21122;SDS011;10719;48.130;11.630;2024-01-10T11:34:50;36.10;;;13.10;;
21122;SDS011;10719;48.130;11.630;2024-01-10T11:37:20;25.47;;;9.83;;
21122;SDS011;10719;48.130;11.630;2024-01-10T11:39:45;34.33;;;12.67;;
21122;SDS011;10719;48.130;11.630;2024-01-10T11:42:11;32.57;;;11.07;;
21122;SDS011;10719;48.130;11.630;2024-01-10T11:44:49;36.00;;;12.27;;
21122;SDS011;10719;48.130;11.630;2024-01-10T11:47:16;35.70;;;11.73;;
21122;SDS011;10719;48.130;11.630;2024-01-10T11:49:53;27.73;;;10.57;;
21122;SDS011;10719;48.130;11.630;2024-01-10T11:52:24;24.03;;;10.30;;
21122;SDS011;10719;48.130;11.630;2024-01-10T11:54:57;28.13;;;11.53;;
21122;SDS011;10719;48.130;11.630;2024-01-10T11:57:25;34.13;;;14.40;;
21122;SDS011;10719;48.130;11.630;2024-01-10T11:59:53;30.63;;;12.60;;
21122;SDS011;10719;48.130;11.630;2024-01-10T12:02:20;39.80;;;12.83;;
21122;SDS011;10719;48.130;11.630;2024-01-10T12:04:48;29.30;;;11.50;;
21122;SDS011;10719;48.130;11.630;2024-01-10T12:07:17;33.47;;;12.63;;
21122;SDS011;10719;48.130;11.630;2024-01-10T12:09:44;34.47;;;13.70;;
21122;SDS011;10719;48.130;11.630;2024-01-10T12:12:13;30.60;;;12.53;;
21122;SDS011;10719;48.130;11.630;2024-01-10T12:14:39;35.03;;;11.90;;
21122;SDS011;10719;48.130;11.630;2024-01-10T12:17:06;34.60;;;12.97;;
21122;SDS011;10719;48.130;11.630;2024-01-10T12:19:35;33.83;;;12.77;;
21122;SDS011;10719;48.130;11.630;2024-01-10T12:22:02;31.23;;;12.20;;
21122;SDS011;10719;48.130;11.630;2024-01-10T12:24:29;40.47;;;12.83;;
21122;SDS011;10719;48.130;11.630;2024-01-10T12:26:55;29.83;;;11.07;;
21122;SDS011;10719;48.130;11.630;2024-01-10T12:29:21;37.10;;;12.90;;
21122;SDS011;10719;48.130;11.630;2024-01-10T12:31:47;35.33;;;12.97;;
21122;SDS011;10719;48.130;11.630;2024-01-10T12:34:14;40.47;;;13.20;;
21122;SDS011;10719;48.130;11.630;2024-01-10T12:36:40;32.67;;;11.67;;
21122;SDS011;10719;48.130;11.630;2024-01-10T12:39:07;28.80;;;11.23;;
21122;SDS011;10719;48.130;11.630;2024-01-10T12:41:32;28.67;;;11.53;;
21122;SDS011;10719;48.130;11.630;2024-01-10T12:44:02;36.60;;;13.37;;
21122;SDS011;10719;48.130;11.630;2024-01-10T12:46:30;37.37;;;13.00;;
21122;SDS011;10719;48.130;11.630;2024-01-10T12:49:03;34.87;;;14.03;;
21122;SDS011;10719;48.130;11.630;2024-01-10T12:51:32;38.73;;;11.83;;
21122;SDS011;10719;48.130;11.630;2024-01-10T12:53:58;34.47;;;13.20;;
21122;SDS011;10719;48.130;11.630;2024-01-10T12:56:25;39.73;;;13.67;;
21122;SDS011;10719;48.130;11.630;2024-01-10T12:58:52;35.47;;;12.03;;
21122;SDS011;10719;48.130;11.630;2024-01-10T13:01:24;37.83;;;13.77;;
21122;SDS011;10719;48.130;11.630;2024-01-10T13:03:50;34.37;;;11.97;;
21122;SDS011;10719;48.130;11.630;2024-01-10T13:06:16;42.57;;;13.53;;
21122;SDS011;10719;48.130;11.630;2024-01-10T13:08:43;33.43;;;11.80;;
21122;SDS011;10719;48.130;11.630;2024-01-10T13:11:10;26.63;;;11.73;;
21122;SDS011;10719;48.130;11.630;2024-01-10T13:13:36;31.60;;;12.13;;
21122;SDS011;10719;48.130;11.630;2024-01-10T13:16:02;34.77;;;12.17;;
21122;SDS011;10719;48.130;11.630;2024-01-10T13:18:28;37.23;;;14.40;;
21122;SDS011;10719;48.130;11.630;2024-01-10T13:20:54;32.13;;;11.53;;
21122;SDS011;10719;48.130;11.630;2024-01-10T13:23:20;33.00;;;11.03;;
21122;SDS011;10719;48.130;11.630;2024-01-10T13:25:50;54.07;;;21.10;;
21122;SDS011;10719;48.130;11.630;2024-01-10T13:28:16;41.83;;;13.80;;
21122;SDS011;10719;48.130;11.630;2024-01-10T13:30:42;34.80;;;12.03;;
21122;SDS011;10719;48.130;11.630;2024-01-10T13:33:10;39.07;;;12.83;;
21122;SDS011;10719;48.130;11.630;2024-01-10T13:35:36;32.97;;;12.17;;
21122;SDS011;10719;48.130;11.630;2024-01-10T13:38:03;40.30;;;13.03;;
21122;SDS011;10719;48.130;11.630;2024-01-10T13:40:29;35.07;;;12.53;;
21122;SDS011;10719;48.130;11.630;2024-01-10T13:42:56;36.83;;;13.47;;
21122;SDS011;10719;48.130;11.630;2024-01-10T13:45:22;35.27;;;12.07;;
21122;SDS011;10719;48.130;11.630;2024-01-10T13:47:48;33.73;;;11.93;;
21122;SDS011;10719;48.130;11.630;2024-01-10T13:50:16;35.47;;;12.00;;
21122;SDS011;10719;48.130;11.630;2024-01-10T13:52:42;34.87;;;12.53;;
21122;SDS011;10719;48.130;11.630;2024-01-10T13:55:08;36.50;;;14.13;;
21122;SDS011;10719;48.130;11.630;2024-01-10T13:57:34;27.63;;;10.07;;
21122;SDS011;10719;48.130;11.630;2024-01-10T14:00:00;32.67;;;12.17;;
21122;SDS011;10719;48.130;11.630;2024-01-10T14:02:28;33.37;;;12.50;;
21122;SDS011;10719;48.130;11.630;2024-01-10T14:04:54;31.33;;;10.20;;
21122;SDS011;10719;48.130;11.630;2024-01-10T14:07:19;28.23;;;11.50;;
21122;SDS011;10719;48.130;11.630;2024-01-10T14:09:45;36.53;;;12.83;;
21122;SDS011;10719;48.130;11.630;2024-01-10T14:12:12;42.87;;;12.93;;
21122;SDS011;10719;48.130;11.630;2024-01-10T14:14:37;28.70;;;11.77;;
21122;SDS011;10719;48.130;11.630;2024-01-10T14:17:03;30.80;;;11.73;;
21122;SDS011;10719;48.130;11.630;2024-01-10T14:19:29;35.27;;;13.37;;
21122;SDS011;10719;48.130;11.630;2024-01-10T14:21:55;39.77;;;13.93;;